Time;durP1;ratioP1;P1;durP2;ratioP2;P2;SDS_P1;SDS_P2;PMS_P1;PMS_P2;Temp;Humidity;BMP_temperature;BMP_pressure;BME280_temperature;BME280_humidity;BME280_pressure;Samples;Min_cycle;Max_cycle;Signal;HPM_P1;HPM_P2
2024/01/15 00:00:12;;;;;;;19.33;7.15;;;;;;;1.90;97.45;100345.00;5091341;28;20028;-80
2024/01/15 00:02:37;;;;;;;12.45;6.50;;;;;;;1.82;97.63;100339.00;5091543;28;20499;-80
2024/01/15 00:05:02;;;;;;;12.38;7.68;;;;;;;2.08;97.16;100330.88;5066690;28;20023;-81
2024/01/15 00:07:28;;;;;;;14.35;7.70;;;;;;;1.85;96.74;100325.94;5084164;28;20024;-80
2024/01/15 00:09:53;;;;;;;16.33;8.65;;;;;;;1.80;97.10;100320.81;5091578;28;20036;-80
2024/01/15 00:12:18;;;;;;;19.27;9.23;;;;;;;1.97;97.19;100323.19;5084156;28;20126;-80
2024/01/15 00:14:44;;;;;;;21.90;10.68;;;;;;;2.05;95.43;100326.53;5066937;28;20033;-76
2024/01/15 00:17:09;;;;;;;22.58;10.73;;;;;;;2.11;95.00;100317.78;5088445;28;20381;-76
2024/01/15 00:19:34;;;;;;;23.25;10.00;;;;;;;2.02;95.21;100316.19;5079979;28;20032;-76
2024/01/15 00:22:00;;;;;;;25.25;10.93;;;;;;;1.97;94.93;100312.78;5088428;28;20081;-76
2024/01/15 00:24:25;;;;;;;22.65;10.70;;;;;;;1.92;95.03;100307.63;5088225;28;20037;-76
2024/01/15 00:26:50;;;;;;;23.88;10.48;;;;;;;1.93;95.04;100306.72;5086109;28;20103;-76
2024/01/15 00:29:16;;;;;;;25.45;11.32;;;;;;;1.89;95.08;100299.81;5065777;28;20059;-76
2024/01/15 00:31:41;;;;;;;24.35;11.85;;;;;;;1.83;95.05;100305.13;5066659;28;20034;-77
2024/01/15 00:34:06;;;;;;;24.80;10.65;;;;;;;1.77;95.09;100305.19;5082047;28;20119;-76
2024/01/15 00:36:32;;;;;;;27.73;12.30;;;;;;;1.78;94.72;100293.91;5080702;28;20024;-76
2024/01/15 00:38:57;;;;;;;24.15;10.48;;;;;;;1.76;94.61;100293.06;5069204;28;20024;-76
2024/01/15 00:41:22;;;;;;;25.27;11.65;;;;;;;1.82;94.72;100297.31;5062324;28;20032;-76
2024/01/15 00:43:49;;;;;;;24.25;11.52;;;;;;;1.70;95.56;100288.78;5084359;28;20016;-76
2024/01/15 00:46:15;;;;;;;21.80;10.63;;;;;;;1.72;95.24;100284.41;5062902;28;20028;-77
2024/01/15 00:48:40;;;;;;;23.08;10.98;;;;;;;1.72;95.33;100284.41;5085295;28;20054;-76
2024/01/15 00:51:05;;;;;;;22.17;10.82;;;;;;;1.72;95.61;100280.94;5089156;28;20101;-77
2024/01/15 00:53:31;;;;;;;15.73;8.50;;;;;;;1.75;95.41;100283.53;5087553;28;20024;-76
2024/01/15 00:55:56;;;;;;;22.55;9.57;;;;;;;1.68;95.56;100276.66;5064509;28;20553;-77
2024/01/15 00:58:22;;;;;;;17.45;8.95;;;;;;;1.68;95.74;100279.25;5063004;28;20071;-77
2024/01/15 01:00:47;;;;;;;18.42;8.70;;;;;;;1.94;94.00;100271.94;5078201;28;20029;-76
2024/01/15 01:03:12;;;;;;;21.02;8.73;;;;;;;1.84;94.84;100274.72;5082022;28;20098;-76
2024/01/15 01:05:38;;;;;;;11.57;6.05;;;;;;;1.77;94.64;100268.72;5084572;28;20028;-77
2024/01/15 01:08:03;;;;;;;16.45;7.60;;;;;;;1.81;94.71;100267.78;5079757;28;20052;-77
2024/01/15 01:10:29;;;;;;;11.85;6.00;;;;;;;1.84;94.93;100267.75;5063331;28;20048;-76
2024/01/15 01:12:54;;;;;;;11.32;4.97;;;;;;;1.89;94.43;100271.16;5081278;28;20020;-77
2024/01/15 01:15:20;;;;;;;8.07;2.70;;;;;;;1.96;94.48;100274.56;5066352;28;20467;-77
2024/01/15 01:17:46;;;;;;;9.52;4.38;;;;;;;1.95;94.37;100267.59;5083291;28;20034;-77
2024/01/15 01:20:11;;;;;;;8.52;3.50;;;;;;;1.98;94.52;100272.78;5082112;28;20507;-77
2024/01/15 01:22:37;;;;;;;5.13;2.83;;;;;;;1.99;94.34;100266.69;5083162;28;20020;-76
2024/01/15 01:25:02;;;;;;;5.80;2.40;;;;;;;1.98;94.09;100270.16;5064217;28;20037;-80
2024/01/15 01:27:28;;;;;;;10.65;2.25;;;;;;;1.95;94.07;100263.25;5082431;28;20110;-81
2024/01/15 01:29:53;;;;;;;3.53;1.85;;;;;;;1.94;93.80;100256.31;5081156;28;20553;-81
2024/01/15 01:32:19;;;;;;;4.82;1.67;;;;;;;1.92;93.95;100267.66;5064773;28;20050;-82
2024/01/15 01:34:44;;;;;;;7.55;1.58;;;;;;;1.87;94.07;100262.50;5084353;28;20466;-81
2024/01/15 01:37:13;;;;;;;3.58;1.30;;;;;;;1.88;93.99;100271.19;5066746;28;20032;-82
2024/01/15 01:39:39;;;;;;;2.55;1.10;;;;;;;1.86;93.82;100270.34;5065928;28;20501;-81
2024/01/15 01:42:04;;;;;;;5.32;1.30;;;;;;;1.83;94.11;100268.66;5081323;28;20316;-81
2024/01/15 01:44:30;;;;;;;3.38;1.27;;;;;;;1.80;94.06;100271.28;5064825;28;20427;-81
2024/01/15 01:46:57;;;;;;;2.03;1.25;;;;;;;1.76;94.16;100267.84;5083284;28;20157;-77
2024/01/15 01:49:23;;;;;;;1.95;1.27;;;;;;;1.71;94.22;100271.41;5066008;28;20028;-77
2024/01/15 01:51:48;;;;;;;5.05;1.10;;;;;;;1.68;94.19;100261.91;5081257;28;20135;-77
2024/01/15 01:54:14;;;;;;;1.23;1.00;;;;;;;1.71;94.33;100269.66;5084598;28;20161;-77
2024/01/15 01:56:41;;;;;;;3.40;1.20;;;;;;;1.67;94.60;100267.97;5065787;28;20027;-77
2024/01/15 01:59:09;;;;;;;2.70;1.30;;;;;;;1.68;94.54;100272.31;5081412;28;20039;-78
2024/01/15 02:01:35;;;;;;;3.67;1.55;;;;;;;1.64;94.43;100268.03;5062496;28;20021;-77
2024/01/15 02:04:00;;;;;;;5.22;1.50;;;;;;;1.61;94.84;100259.38;5066699;28;20028;-77
2024/01/15 02:06:27;;;;;;;5.93;1.77;;;;;;;1.67;94.63;100270.56;5083889;28;20027;-77
2024/01/15 02:08:52;;;;;;;4.15;1.65;;;;;;;1.70;94.71;100262.72;5083011;28;20383;-77
2024/01/15 02:11:17;;;;;;;2.95;1.45;;;;;;;1.72;94.65;100270.50;5083036;28;20288;-77
2024/01/15 02:13:43;;;;;;;5.75;1.67;;;;;;;1.74;94.51;100259.22;5081388;28;20032;-77
2024/01/15 02:16:08;;;;;;;4.78;1.27;;;;;;;1.76;94.71;100259.19;5068727;28;20019;-77
2024/01/15 02:18:44;;;;;;;3.33;1.25;;;;;;;1.76;94.69;100252.22;5080665;28;20038;-78
2024/01/15 02:21:10;;;;;;;2.75;1.48;;;;;;;1.81;94.31;100259.97;5070584;28;20031;-77
2024/01/15 02:23:36;;;;;;;4.18;1.10;;;;;;;1.71;94.74;100260.97;5065345;28;20039;-77
2024/01/15 02:26:02;;;;;;;3.78;1.30;;;;;;;1.73;94.37;100257.50;5070641;28;20032;-77
2024/01/15 02:28:27;;;;;;;3.55;1.15;;;;;;;1.72;94.33;100255.75;5064800;28;20383;-77
2024/01/15 02:30:52;;;;;;;3.13;1.45;;;;;;;1.78;94.15;100249.59;5078489;28;20031;-77
2024/01/15 02:33:18;;;;;;;5.18;2.15;;;;;;;1.72;93.93;100253.13;5064076;28;20388;-77
2024/01/15 02:35:43;;;;;;;3.65;1.10;;;;;;;1.71;93.95;100246.22;5061415;28;20021;-82
2024/01/15 02:38:09;;;;;;;8.13;1.50;;;;;;;1.70;93.97;100254.06;5082977;28;20082;-81
2024/01/15 02:40:35;;;;;;;3.78;0.93;;;;;;;1.70;94.06;100264.47;5082349;28;20032;-81
2024/01/15 02:43:00;;;;;;;5.63;1.58;;;;;;;1.63;94.17;100249.78;5081784;28;20502;-81
2024/01/15 02:45:26;;;;;;;5.60;1.92;;;;;;;1.59;94.47;100259.41;5083191;28;20111;-81
2024/01/15 02:47:52;;;;;;;3.33;1.55;;;;;;;1.62;94.29;100254.16;5063688;28;20024;-82
2024/01/15 02:50:17;;;;;;;3.15;1.23;;;;;;;1.61;93.82;100249.81;5065483;28;20095;-81
2024/01/15 02:52:42;;;;;;;7.85;1.42;;;;;;;1.61;94.00;100248.97;5065487;28;20111;-81
2024/01/15 02:55:08;;;;;;;4.65;1.20;;;;;;;1.59;93.87;100250.75;5060512;28;20028;-77
2024/01/15 02:57:34;;;;;;;1.10;0.70;;;;;;;1.61;93.79;100255.03;5060955;28;20160;-77
2024/01/15 02:59:59;;;;;;;7.05;1.10;;;;;;;1.58;93.54;100256.81;5063695;28;20510;-77
2024/01/15 03:02:25;;;;;;;4.43;1.00;;;;;;;1.59;93.76;100248.13;5082785;28;20028;-77
2024/01/15 03:04:50;;;;;;;3.38;0.70;;;;;;;1.59;93.93;100250.75;5081695;28;20024;-77
2024/01/15 03:07:16;;;;;;;5.97;1.15;;;;;;;1.56;93.56;100258.59;5086850;28;20111;-77
2024/01/15 03:09:47;;;;;;;4.32;1.23;;;;;;;1.55;93.85;100262.09;5077533;28;20079;-77
2024/01/15 03:12:12;;;;;;;1.77;0.70;;;;;;;1.56;93.43;100261.19;5065302;28;20028;-78
2024/01/15 03:14:38;;;;;;;4.72;0.82;;;;;;;1.53;93.50;100262.94;5062803;28;20027;-78
2024/01/15 03:17:03;;;;;;;1.42;0.90;;;;;;;1.53;93.65;100260.34;5082905;28;20444;-77
2024/01/15 03:19:30;;;;;;;0.65;0.50;;;;;;;1.53;93.67;100256.88;5084493;28;20031;-77
2024/01/15 03:21:55;;;;;;;2.38;0.60;;;;;;;1.55;93.72;100249.06;5067109;28;20034;-78
2024/01/15 03:24:21;;;;;;;2.92;0.90;;;;;;;1.56;93.75;100249.03;5074209;28;20024;-77
2024/01/15 03:26:46;;;;;;;7.13;1.00;;;;;;;1.56;93.59;100242.97;5074970;28;20028;-78
2024/01/15 03:29:11;;;;;;;8.63;0.80;;;;;;;1.53;93.60;100252.50;5091264;28;20035;-77
2024/01/15 03:31:36;;;;;;;3.08;0.70;;;;;;;1.52;93.76;100253.41;5096359;28;20031;-77
2024/01/15 03:34:02;;;;;;;3.47;0.63;;;;;;;1.53;93.48;100247.31;5094914;28;20050;-77
2024/01/15 03:36:27;;;;;;;2.75;0.68;;;;;;;1.52;93.47;100247.34;5073916;28;20016;-78
2024/01/15 03:38:52;;;;;;;3.13;0.73;;;;;;;1.53;93.78;100246.44;5095686;28;20404;-77
2024/01/15 03:41:18;;;;;;;5.57;0.95;;;;;;;1.51;93.60;100238.66;5090680;28;20020;-78
2024/01/15 03:43:43;;;;;;;2.72;1.20;;;;;;;1.51;93.85;100240.41;5093661;28;20483;-77
2024/01/15 03:46:08;;;;;;;6.07;1.40;;;;;;;1.47;93.72;100238.72;5077572;28;20066;-81
2024/01/15 03:48:34;;;;;;;6.72;1.33;;;;;;;1.50;93.76;100239.56;5096061;28;20028;-82
2024/01/15 03:51:00;;;;;;;3.28;0.70;;;;;;;1.49;93.89;100248.25;5095324;28;20028;-81
2024/01/15 03:53:25;;;;;;;9.90;1.23;;;;;;;1.48;94.23;100240.44;5094349;28;20020;-82
2024/01/15 03:55:50;;;;;;;3.10;0.75;;;;;;;1.49;94.02;100243.03;5080981;28;20031;-81
2024/01/15 03:58:16;;;;;;;4.68;1.10;;;;;;;1.50;94.37;100228.28;5094768;28;20059;-82
2024/01/15 04:00:42;;;;;;;4.50;1.15;;;;;;;1.57;94.11;100231.66;5094952;28;20400;-81
2024/01/15 04:03:08;;;;;;;3.72;1.10;;;;;;;1.60;94.20;100227.25;5068556;28;20032;-82
2024/01/15 04:05:33;;;;;;;2.53;0.77;;;;;;;1.71;93.87;100221.91;5077240;28;20118;-78
2024/01/15 04:07:58;;;;;;;3.40;1.02;;;;;;;1.69;93.67;100213.25;5091018;28;20031;-78
2024/01/15 04:10:24;;;;;;;3.80;1.00;;;;;;;1.75;94.03;100218.38;5094029;28;20645;-78
2024/01/15 04:12:49;;;;;;;4.07;1.77;;;;;;;1.78;94.09;100213.13;5093255;28;20077;-78
2024/01/15 04:15:15;;;;;;;7.28;1.60;;;;;;;1.82;93.96;100213.91;5068579;28;20373;-77
2024/01/15 04:17:40;;;;;;;8.98;1.45;;;;;;;1.80;94.06;100206.13;5091913;28;20383;-77
2024/01/15 04:20:06;;;;;;;5.70;1.30;;;;;;;1.86;94.21;100210.38;5094810;28;20232;-77
2024/01/15 04:22:32;;;;;;;7.82;1.30;;;;;;;2.04;92.93;100205.75;5098470;28;20406;-77
2024/01/15 04:24:57;;;;;;;3.50;1.25;;;;;;;2.20;92.81;100202.94;5075243;28;20030;-77
2024/01/15 04:27:22;;;;;;;4.50;1.00;;;;;;;2.29;92.12;100210.59;5080551;28;20463;-77
2024/01/15 04:29:48;;;;;;;5.15;1.30;;;;;;;2.00;93.22;100208.44;5069828;28;20153;-77
2024/01/15 04:32:13;;;;;;;3.55;1.30;;;;;;;1.96;93.41;100212.00;5091834;28;20040;-77
2024/01/15 04:34:38;;;;;;;8.20;1.35;;;;;;;1.92;93.70;100213.78;5071905;28;20046;-77
2024/01/15 04:37:03;;;;;;;3.72;1.10;;;;;;;2.00;93.52;100209.28;5085051;28;20371;-77
2024/01/15 04:39:29;;;;;;;7.60;1.65;;;;;;;1.99;93.68;100207.56;5069814;28;20028;-78
2024/01/15 04:41:54;;;;;;;3.80;1.33;;;;;;;2.00;93.65;100204.06;5083679;28;20020;-78
2024/01/15 04:44:20;;;;;;;0.85;0.50;;;;;;;2.01;93.83;100194.53;5091710;28;20024;-77
2024/01/15 04:46:45;;;;;;;3.50;0.93;;;;;;;2.08;93.34;100184.88;5087570;28;20024;-77
2024/01/15 04:49:11;;;;;;;5.22;1.13;;;;;;;2.11;93.30;100190.91;5090555;28;20024;-77
2024/01/15 04:51:36;;;;;;;6.22;1.40;;;;;;;2.15;93.23;100186.50;5054810;28;20123;-77
2024/01/15 04:54:02;;;;;;;3.47;1.10;;;;;;;2.16;92.88;100183.00;5091429;28;20390;-77
2024/01/15 04:56:27;;;;;;;5.50;1.30;;;;;;;2.17;92.76;100190.78;5084596;28;20078;-77
2024/01/15 04:58:52;;;;;;;3.28;1.00;;;;;;;2.41;92.01;100196.47;5066649;28;20055;-77
2024/01/15 05:01:18;;;;;;;2.05;0.80;;;;;;;2.53;90.90;100199.75;5086163;28;20418;-75
2024/01/15 05:03:43;;;;;;;2.33;0.75;;;;;;;2.24;91.54;100197.63;5068096;28;20435;-76
2024/01/15 05:06:09;;;;;;;3.95;0.80;;;;;;;2.16;92.18;100193.44;5062295;28;20032;-76
2024/01/15 05:08:34;;;;;;;1.88;1.00;;;;;;;2.12;92.20;100184.78;5091565;28;20020;-77
2024/01/15 05:11:00;;;;;;;2.10;0.75;;;;;;;2.03;92.22;100188.41;5093554;28;20044;-76
2024/01/15 05:13:25;;;;;;;3.97;0.65;;;;;;;2.01;92.16;100184.97;5073692;28;20085;-76
2024/01/15 05:15:50;;;;;;;1.50;0.77;;;;;;;1.99;92.36;100184.13;5092565;28;20439;-78
2024/01/15 05:18:16;;;;;;;3.50;0.82;;;;;;;1.97;92.63;100175.47;5072454;28;20036;-76
2024/01/15 05:20:42;;;;;;;0.52;0.47;;;;;;;2.05;92.45;100170.13;5072210;28;20031;-77
2024/01/15 05:23:07;;;;;;;3.45;0.77;;;;;;;2.04;92.54;100166.66;5082642;28;20055;-76
2024/01/15 05:25:33;;;;;;;3.08;0.63;;;;;;;2.04;92.34;100171.88;5083725;28;20363;-77
2024/01/15 05:27:58;;;;;;;1.70;0.88;;;;;;;2.00;92.59;100172.78;5072747;28;20028;-76
2024/01/15 05:30:23;;;;;;;3.45;0.70;;;;;;;2.01;92.71;100182.38;5088429;28;20107;-76
2024/01/15 05:32:49;;;;;;;3.33;0.93;;;;;;;1.92;92.70;100174.69;5072572;28;20039;-77
2024/01/15 05:35:14;;;;;;;0.88;0.50;;;;;;;1.92;92.95;100181.66;5091014;28;20318;-77
2024/01/15 05:37:44;;;;;;;0.68;0.50;;;;;;;1.88;92.75;100183.44;5075425;28;20054;-76
2024/01/15 05:40:09;;;;;;;0.45;0.40;;;;;;;1.82;92.61;100177.44;5088282;28;20066;-76
2024/01/15 05:42:35;;;;;;;1.70;0.77;;;;;;;1.75;92.86;100169.72;5081558;28;20024;-76
2024/01/15 05:45:02;;;;;;;1.45;0.90;;;;;;;1.76;93.14;100178.38;5091025;28;20034;-77
2024/01/15 05:47:27;;;;;;;1.40;0.85;;;;;;;1.73;92.95;100170.66;5067905;28;20027;-77
2024/01/15 05:49:53;;;;;;;1.55;0.80;;;;;;;1.77;93.06;100178.38;5083715;28;20472;-77
2024/01/15 05:52:18;;;;;;;1.70;0.82;;;;;;;1.77;93.26;100167.06;5089181;28;20512;-77
2024/01/15 05:54:43;;;;;;;1.67;1.02;;;;;;;1.77;93.54;100167.97;5088879;28;20109;-77
2024/01/15 05:57:08;;;;;;;2.22;1.42;;;;;;;1.81;93.23;100163.53;5091114;28;20031;-77
2024/01/15 05:59:36;;;;;;;4.15;1.10;;;;;;;1.78;93.20;100171.44;5080495;28;20097;-76
2024/01/15 06:02:01;;;;;;;1.48;0.75;;;;;;;1.74;93.29;100165.41;5070967;28;20090;-77
2024/01/15 06:04:26;;;;;;;2.53;1.13;;;;;;;1.75;93.44;100158.44;5089632;28;20027;-76
2024/01/15 06:06:52;;;;;;;7.13;1.30;;;;;;;1.76;93.25;100166.22;5069443;28;20023;-76
2024/01/15 06:09:17;;;;;;;1.88;0.88;;;;;;;1.70;93.31;100166.31;5091169;28;20383;-77
2024/01/15 06:11:43;;;;;;;3.55;1.33;;;;;;;1.67;93.67;100155.94;5070528;28;20069;-78
2024/01/15 06:14:08;;;;;;;2.58;0.73;;;;;;;1.70;93.44;100161.13;5070256;28;20111;-78
2024/01/15 06:16:33;;;;;;;2.47;1.30;;;;;;;1.61;93.84;100150.81;5070684;28;20024;-78
2024/01/15 06:18:58;;;;;;;4.25;1.15;;;;;;;1.61;93.93;100152.56;5066896;28;20537;-78
2024/01/15 06:21:24;;;;;;;3.17;1.25;;;;;;;1.65;93.86;100149.91;5086260;28;20060;-78
2024/01/15 06:23:49;;;;;;;2.75;1.08;;;;;;;1.67;93.84;100144.66;5092097;28;20020;-78
2024/01/15 06:26:15;;;;;;;6.50;2.22;;;;;;;1.68;93.89;100149.88;5072347;28;20024;-78
2024/01/15 06:28:40;;;;;;;6.53;1.50;;;;;;;1.71;94.04;100144.59;5093430;28;20040;-78
2024/01/15 06:31:08;;;;;;;2.75;1.45;;;;;;;1.71;93.86;100146.34;5090158;28;20028;-78
2024/01/15 06:33:34;;;;;;;3.95;1.30;;;;;;;1.73;94.04;100147.19;5085922;28;20027;-78
2024/01/15 06:35:59;;;;;;;4.00;1.17;;;;;;;1.74;94.18;100144.56;5076978;28;20059;-78
2024/01/15 06:38:25;;;;;;;2.47;1.10;;;;;;;1.76;94.31;100144.53;5083418;28;20073;-78
2024/01/15 06:40:51;;;;;;;4.97;1.55;;;;;;;1.78;94.49;100147.97;5087755;28;20027;-78
2024/01/15 06:43:17;;;;;;;6.63;2.38;;;;;;;1.78;94.32;100146.22;5065432;28;20049;-77
2024/01/15 06:45:43;;;;;;;5.75;1.60;;;;;;;1.83;94.23;100145.31;5092385;28;20093;-78
2024/01/15 06:48:08;;;;;;;1.95;1.60;;;;;;;1.86;93.97;100143.47;5067320;28;20517;-79
2024/01/15 06:50:34;;;;;;;3.40;1.40;;;;;;;1.90;93.76;100145.16;5062804;28;20081;-77
2024/01/15 06:52:59;;;;;;;1.63;1.33;;;;;;;1.89;93.88;100142.59;5071214;28;20032;-78
2024/01/15 06:55:25;;;;;;;1.30;1.20;;;;;;;1.89;93.62;100142.59;5082284;28;20021;-79
2024/01/15 06:57:51;;;;;;;1.13;0.98;;;;;;;1.90;93.56;100150.38;5072172;28;20031;-79
2024/01/15 07:00:17;;;;;;;2.08;1.30;;;;;;;1.88;93.60;100151.31;5068721;28;20020;-78
2024/01/15 07:02:42;;;;;;;1.90;1.00;;;;;;;1.87;93.54;100140.00;5080868;28;20506;-79
2024/01/15 07:05:08;;;;;;;1.27;1.17;;;;;;;1.82;93.69;100143.56;5065001;28;20040;-80
2024/01/15 07:07:33;;;;;;;2.47;1.25;;;;;;;1.84;93.37;100136.59;5090120;28;20050;-79
2024/01/15 07:09:58;;;;;;;2.60;1.50;;;;;;;1.83;93.39;100135.72;5088027;28;20054;-79
2024/01/15 07:12:24;;;;;;;1.85;1.38;;;;;;;1.77;93.56;100141.91;5082711;28;20040;-78
2024/01/15 07:14:49;;;;;;;1.17;1.02;;;;;;;1.74;93.60;100143.69;5083874;28;20456;-80
2024/01/15 07:17:15;;;;;;;1.77;1.05;;;;;;;1.74;93.60;100154.13;5081670;28;20036;-79
2024/01/15 07:19:40;;;;;;;3.63;1.30;;;;;;;1.73;93.77;100158.47;5070411;28;20469;-79
2024/01/15 07:22:07;;;;;;;3.33;1.33;;;;;;;1.72;93.63;100151.50;5068985;28;20105;-79
2024/01/15 07:24:34;;;;;;;1.75;1.10;;;;;;;1.71;93.67;100149.81;5067356;28;20032;-78
2024/01/15 07:26:59;;;;;;;1.88;1.40;;;;;;;1.62;93.84;100139.50;5069087;28;20024;-82
2024/01/15 07:29:25;;;;;;;1.48;1.20;;;;;;;1.62;93.73;100142.13;5085252;28;20095;-82
2024/01/15 07:31:51;;;;;;;1.45;1.35;;;;;;;1.61;93.87;100143.00;5076835;28;20127;-82
2024/01/15 07:34:17;;;;;;;2.22;1.30;;;;;;;1.64;93.83;100156.00;5064399;28;20051;-83
2024/01/15 07:36:45;;;;;;;1.50;1.40;;;;;;;1.64;93.64;100142.97;5083548;28;20120;-78
2024/01/15 07:39:11;;;;;;;1.75;1.42;;;;;;;1.60;93.78;100140.44;5063465;28;20569;-79
2024/01/15 07:41:36;;;;;;;3.15;1.83;;;;;;;1.60;94.13;100154.31;5061757;28;20103;-79
2024/01/15 07:44:02;;;;;;;3.35;1.63;;;;;;;1.71;93.97;100157.63;5082364;28;20492;-80
2024/01/15 07:46:28;;;;;;;4.05;1.63;;;;;;;1.74;93.83;100159.31;5087492;28;20032;-84
2024/01/15 07:48:56;;;;;;;3.25;1.77;;;;;;;1.71;93.80;100155.00;5078681;28;20146;-84
2024/01/15 07:51:25;;;;;;;3.60;2.63;;;;;;;1.76;93.73;100155.78;5064497;28;20039;-83
2024/01/15 07:53:53;;;;;;;3.25;2.45;;;;;;;1.82;93.74;100167.91;5078916;28;20024;-82
2024/01/15 07:56:18;;;;;;;5.13;3.88;;;;;;;1.82;93.50;100159.19;5057999;28;20029;-77
2024/01/15 07:58:43;;;;;;;5.22;3.58;;;;;;;1.80;93.60;100156.63;5059056;28;20047;-78
2024/01/15 08:01:09;;;;;;;4.57;3.55;;;;;;;1.85;93.50;100167.81;5082851;28;20461;-77
2024/01/15 08:03:34;;;;;;;4.97;3.00;;;;;;;1.87;93.21;100170.44;5061283;28;20119;-78
2024/01/15 08:05:59;;;;;;;5.03;3.10;;;;;;;1.87;93.31;100173.91;5065931;28;20032;-77
2024/01/15 08:08:26;;;;;;;4.47;3.35;;;;;;;1.86;93.25;100179.13;5078918;28;20119;-77
2024/01/15 08:10:53;;;;;;;6.93;3.67;;;;;;;1.91;93.20;100187.72;5063101;28;20072;-77
2024/01/15 08:13:18;;;;;;;5.75;3.55;;;;;;;1.89;93.20;100179.06;5090241;28;20440;-76
2024/01/15 08:15:44;;;;;;;5.43;3.53;;;;;;;1.92;93.19;100192.06;5088521;28;20098;-76
2024/01/15 08:18:09;;;;;;;5.07;3.25;;;;;;;1.89;93.08;100189.50;5085821;28;20031;-77
2024/01/15 08:20:34;;;;;;;7.18;4.13;;;;;;;1.89;92.95;100195.56;5084899;28;20347;-77
2024/01/15 08:23:00;;;;;;;5.20;3.72;;;;;;;1.90;93.03;100197.28;5089589;28;20058;-77
2024/01/15 08:25:25;;;;;;;4.93;3.72;;;;;;;1.87;93.05;100197.34;5089060;28;20161;-77
2024/01/15 08:27:51;;;;;;;5.65;4.25;;;;;;;1.87;93.18;100197.34;5071528;28;20024;-77
2024/01/15 08:30:18;;;;;;;4.65;3.47;;;;;;;1.87;93.10;100184.31;5087991;28;20020;-78
2024/01/15 08:32:44;;;;;;;6.22;3.75;;;;;;;1.84;93.03;100181.75;5085350;28;20024;-78
2024/01/15 08:35:12;;;;;;;5.47;4.35;;;;;;;1.87;93.01;100189.53;5084846;28;20476;-82
2024/01/15 08:37:38;;;;;;;5.63;3.67;;;;;;;1.92;93.17;100194.69;5085812;28;20060;-83
2024/01/15 08:40:04;;;;;;;4.45;3.20;;;;;;;1.94;93.13;100191.16;5083875;28;20082;-82
2024/01/15 08:42:30;;;;;;;7.43;3.83;;;;;;;1.97;92.91;100198.06;5071651;28;20058;-83
2024/01/15 08:44:55;;;;;;;6.00;4.45;;;;;;;2.02;93.32;100189.28;5082494;28;20032;-83
2024/01/15 08:47:21;;;;;;;3.90;3.45;;;;;;;2.07;92.93;100185.75;5086161;28;20047;-83
2024/01/15 08:49:46;;;;;;;5.72;4.60;;;;;;;2.06;92.76;100187.50;5069032;28;20043;-82
2024/01/15 08:52:12;;;;;;;5.05;3.88;;;;;;;2.07;92.57;100188.38;5084581;28;20131;-83
2024/01/15 08:54:37;;;;;;;5.75;4.15;;;;;;;2.13;92.54;100196.06;5085561;28;20047;-82
2024/01/15 08:57:03;;;;;;;4.43;4.03;;;;;;;2.13;92.60;100194.31;5078517;28;20024;-83
2024/01/15 08:59:28;;;;;;;5.10;3.92;;;;;;;2.15;92.53;100192.56;5087641;28;20028;-82
2024/01/15 09:01:55;;;;;;;3.95;3.42;;;;;;;2.12;92.51;100196.97;5067660;28;20056;-82
2024/01/15 09:04:20;;;;;;;4.25;3.22;;;;;;;2.10;92.51;100185.69;5081633;28;20033;-82
2024/01/15 09:06:48;;;;;;;3.60;2.97;;;;;;;2.09;92.37;100179.63;5068929;28;20023;-81
2024/01/15 09:09:14;;;;;;;1.45;1.35;;;;;;;2.10;92.12;100189.19;5084986;28;20033;-82
2024/01/15 09:11:40;;;;;;;3.70;2.10;;;;;;;2.10;92.25;100185.69;5084176;28;20035;-82
2024/01/15 09:14:06;;;;;;;4.05;1.70;;;;;;;2.09;92.44;100184.81;5067792;28;20123;-81
2024/01/15 09:16:31;;;;;;;1.85;1.75;;;;;;;2.14;92.36;100189.97;5072693;28;20115;-80
2024/01/15 09:18:59;;;;;;;3.92;1.60;;;;;;;2.17;92.08;100189.94;5081825;28;20115;-81
2024/01/15 09:21:25;;;;;;;2.42;1.50;;;;;;;2.18;92.15;100186.44;5086027;28;20080;-81
2024/01/15 09:23:50;;;;;;;2.60;1.25;;;;;;;2.20;91.84;100189.88;5085623;28;20035;-81
2024/01/15 09:26:16;;;;;;;0.85;0.85;;;;;;;2.25;91.72;100191.53;5068490;28;20032;-80
2024/01/15 09:28:41;;;;;;;2.35;1.20;;;;;;;2.30;91.47;100186.25;5067955;28;20035;-78
2024/01/15 09:31:07;;;;;;;2.47;1.17;;;;;;;2.31;91.50;100182.72;5078677;28;20455;-81
2024/01/15 09:33:32;;;;;;;2.05;0.90;;;;;;;2.37;90.89;100187.84;5064773;28;20042;-80
2024/01/15 09:36:03;;;;;;;2.33;1.33;;;;;;;2.34;90.68;100187.06;5072745;28;20134;-79
2024/01/15 09:38:29;;;;;;;2.33;0.68;;;;;;;2.43;90.26;100177.31;5085919;28;20483;-79
2024/01/15 09:40:54;;;;;;;3.38;0.80;;;;;;;2.47;90.22;100176.38;5080685;28;20027;-80
2024/01/15 09:43:20;;;;;;;2.28;0.73;;;;;;;2.52;90.07;100194.56;5064025;28;20271;-80
2024/01/15 09:45:46;;;;;;;3.13;0.80;;;;;;;2.52;89.96;100198.03;5088393;28;20035;-80
2024/01/15 09:48:12;;;;;;;3.17;0.90;;;;;;;2.51;89.68;100195.44;5079552;28;20047;-81
2024/01/15 09:50:37;;;;;;;3.67;0.90;;;;;;;2.55;89.59;100197.94;5061521;28;20015;-79
2024/01/15 09:53:05;;;;;;;5.45;0.98;;;;;;;2.63;89.60;100197.81;5061854;28;20532;-80
2024/01/15 09:55:30;;;;;;;4.88;0.85;;;;;;;2.71;89.33;100208.13;5070355;28;20053;-81
2024/01/15 09:57:57;;;;;;;3.90;1.00;;;;;;;2.75;89.03;100210.66;5079433;28;20027;-79
2024/01/15 10:00:23;;;;;;;1.80;0.90;;;;;;;2.84;88.61;100213.97;5080908;28;20035;-80
2024/01/15 10:02:49;;;;;;;2.90;0.90;;;;;;;2.84;88.51;100213.97;5081145;28;20053;-79
2024/01/15 10:05:14;;;;;;;4.57;1.17;;;;;;;2.92;88.53;100207.72;5082172;28;20055;-79
2024/01/15 10:07:40;;;;;;;2.72;2.05;;;;;;;3.56;87.19;100213.41;5086112;28;20506;-79
2024/01/15 10:10:07;;;;;;;8.70;1.50;;;;;;;4.68;86.11;100201.13;5081526;28;20174;-80
2024/01/15 10:12:33;;;;;;;3.42;1.70;;;;;;;5.93;80.46;100201.91;5082223;28;20031;-79
2024/01/15 10:14:58;;;;;;;1.77;0.60;;;;;;;6.24;78.22;100206.16;5084050;28;20032;-80
2024/01/15 10:17:27;;;;;;;2.03;0.75;;;;;;;7.40;75.60;100204.75;5084872;28;20020;-80
2024/01/15 10:19:52;;;;;;;1.02;0.90;;;;;;;8.86;71.74;100191.84;5079643;28;20045;-79
2024/01/15 10:22:20;;;;;;;4.13;0.80;;;;;;;10.04;66.33;100192.59;5087996;28;20119;-80
2024/01/15 10:24:46;;;;;;;2.95;1.95;;;;;;;11.09;62.35;100194.34;5080729;28;20622;-80
2024/01/15 10:29:41;;;;;;;3.28;0.90;;;;;;;12.49;58.08;100200.72;5052239;28;20052;-78
2024/01/15 10:32:10;;;;;;;1.05;0.60;;;;;;;12.08;56.74;100206.63;5046779;28;20032;-77
2024/01/15 10:34:42;;;;;;;1.42;0.60;;;;;;;10.16;61.54;100209.59;5047267;28;20041;-78
2024/01/15 10:37:08;;;;;;;;;;;;;;;8.87;68.54;100209.41;5032571;28;20785;-77
2024/01/15 10:39:33;;;;;;;6.80;0.90;;;;;;;7.41;69.02;100204.69;5049364;28;20015;-76
2024/01/15 10:41:58;;;;;;;3.53;0.80;;;;;;;6.60;71.78;100210.19;5048473;28;20431;-77
2024/01/15 10:44:25;;;;;;;2.15;1.00;;;;;;;5.88;74.93;100202.03;5043135;28;20033;-77
2024/01/15 10:46:51;;;;;;;3.88;1.25;;;;;;;5.48;76.69;100198.88;5048287;28;20027;-75
2024/01/15 10:49:18;;;;;;;3.28;1.15;;;;;;;5.20;78.02;100201.44;5035511;28;20029;-76
2024/01/15 10:51:44;;;;;;;3.95;0.93;;;;;;;4.93;78.78;100200.44;5049193;28;20344;-76
2024/01/15 10:54:13;;;;;;;3.33;1.20;;;;;;;4.72;79.42;100204.53;5047530;28;20090;-76
2024/01/15 10:56:39;;;;;;;4.72;1.40;;;;;;;4.58;80.49;100200.50;5044011;28;20040;-76
2024/01/15 10:59:04;;;;;;;4.05;1.25;;;;;;;4.51;81.08;100206.78;5047790;28;20052;-76
2024/01/15 11:01:31;;;;;;;10.57;1.40;;;;;;;4.50;81.44;100212.06;5050300;28;20092;-75
2024/01/15 11:03:57;;;;;;;6.00;1.45;;;;;;;4.48;81.29;100208.63;5044894;28;20039;-76
2024/01/15 11:06:24;;;;;;;5.80;1.45;;;;;;;4.35;81.49;100202.84;5045733;28;20087;-75
2024/01/15 11:08:50;;;;;;;2.25;1.38;;;;;;;4.25;81.43;100196.97;5049690;28;20035;-75
2024/01/15 11:11:17;;;;;;;2.47;1.23;;;;;;;4.16;82.38;100206.81;5036732;28;20037;-74
2024/01/15 11:13:45;;;;;;;5.25;1.38;;;;;;;4.20;82.11;100205.84;5051832;28;20032;-74
2024/01/15 11:16:12;;;;;;;2.28;1.30;;;;;;;4.89;81.64;100207.53;5052939;28;20607;-74
2024/01/15 11:18:40;;;;;;;4.15;0.90;;;;;;;6.38;76.72;100207.44;5054937;28;20025;-75
2024/01/15 11:21:17;;;;;;;5.22;1.23;;;;;;;7.87;73.53;100204.69;5042945;28;20082;-75
2024/01/15 11:23:50;;;;;;;3.53;1.17;;;;;;;9.00;69.13;100200.03;5050804;28;20480;-75
2024/01/15 11:26:37;;;;;;;2.17;1.10;;;;;;;8.94;67.93;100193.22;5050385;28;20028;-75